sensor_id;sensor_type;location;lat;lon;timestamp;P1;durP1;ratioP1;P2;durP2;ratioP2
11453;SDS011;5783;55.174;61.310;2023-06-22T00:00:12;4.90;;;4.40;;
11453;SDS011;5783;55.174;61.310;2023-06-22T00:02:42;4.53;;;4.13;;
11453;SDS011;5783;55.174;61.310;2023-06-22T00:05:11;4.53;;;4.13;;
11453;SDS011;5783;55.174;61.310;2023-06-22T00:07:40;4.60;;;4.20;;
11453;SDS011;5783;55.174;61.310;2023-06-22T00:10:09;4.60;;;4.20;;
11453;SDS011;5783;55.174;61.310;2023-06-22T00:12:38;4.70;;;4.20;;
11453;SDS011;5783;55.174;61.310;2023-06-22T00:15:07;4.30;;;3.90;;
11453;SDS011;5783;55.174;61.310;2023-06-22T00:17:37;4.77;;;4.10;;
11453;SDS011;5783;55.174;61.310;2023-06-22T00:20:07;4.60;;;4.20;;
11453;SDS011;5783;55.174;61.310;2023-06-22T00:22:37;4.70;;;4.30;;
11453;SDS011;5783;55.174;61.310;2023-06-22T00:25:06;4.50;;;3.93;;
11453;SDS011;5783;55.174;61.310;2023-06-22T00:27:36;4.47;;;4.07;;
11453;SDS011;5783;55.174;61.310;2023-06-22T00:30:06;4.30;;;3.90;;
11453;SDS011;5783;55.174;61.310;2023-06-22T00:32:36;4.80;;;3.90;;
11453;SDS011;5783;55.174;61.310;2023-06-22T00:35:05;4.73;;;4.13;;
11453;SDS011;5783;55.174;61.310;2023-06-22T00:37:36;4.47;;;4.07;;
11453;SDS011;5783;55.174;61.310;2023-06-22T00:40:09;4.57;;;4.17;;
11453;SDS011;5783;55.174;61.310;2023-06-22T00:42:40;4.73;;;4.13;;
11453;SDS011;5783;55.174;61.310;2023-06-22T00:45:09;4.50;;;4.10;;
11453;SDS011;5783;55.174;61.310;2023-06-22T00:47:39;4.60;;;4.20;;
11453;SDS011;5783;55.174;61.310;2023-06-22T00:50:09;4.37;;;3.97;;
11453;SDS011;5783;55.174;61.310;2023-06-22T00:52:43;4.60;;;3.93;;
11453;SDS011;5783;55.174;61.310;2023-06-22T00:55:12;4.60;;;4.20;;
11453;SDS011;5783;55.174;61.310;2023-06-22T00:57:45;4.33;;;3.60;;
11453;SDS011;5783;55.174;61.310;2023-06-22T01:00:16;4.83;;;3.90;;
11453;SDS011;5783;55.174;61.310;2023-06-22T01:02:46;4.87;;;4.37;;
11453;SDS011;5783;55.174;61.310;2023-06-22T01:05:17;4.40;;;4.00;;
11453;SDS011;5783;55.174;61.310;2023-06-22T01:16:55;4.60;;;4.20;;
11453;SDS011;5783;55.174;61.310;2023-06-22T01:22:38;4.80;;;4.40;;
11453;SDS011;5783;55.174;61.310;2023-06-22T01:31:25;5.03;;;3.73;;
11453;SDS011;5783;55.174;61.310;2023-06-22T01:33:58;4.40;;;4.00;;
11453;SDS011;5783;55.174;61.310;2023-06-22T01:36:29;4.57;;;4.13;;
11453;SDS011;5783;55.174;61.310;2023-06-22T01:39:00;4.30;;;3.90;;
11453;SDS011;5783;55.174;61.310;2023-06-22T01:41:33;4.50;;;4.00;;
11453;SDS011;5783;55.174;61.310;2023-06-22T01:44:05;4.30;;;3.90;;
11453;SDS011;5783;55.174;61.310;2023-06-22T01:46:34;4.27;;;3.87;;
11453;SDS011;5783;55.174;61.310;2023-06-22T01:49:04;4.30;;;3.90;;
11453;SDS011;5783;55.174;61.310;2023-06-22T01:51:34;4.23;;;3.83;;
11453;SDS011;5783;55.174;61.310;2023-06-22T01:54:05;4.10;;;3.70;;
11453;SDS011;5783;55.174;61.310;2023-06-22T01:56:35;4.13;;;3.73;;
11453;SDS011;5783;55.174;61.310;2023-06-22T01:59:08;4.90;;;4.13;;
11453;SDS011;5783;55.174;61.310;2023-06-22T02:07:39;4.37;;;3.77;;
11453;SDS011;5783;55.174;61.310;2023-06-22T02:10:26;4.27;;;3.87;;
11453;SDS011;5783;55.174;61.310;2023-06-22T02:12:57;5.17;;;4.03;;
11453;SDS011;5783;55.174;61.310;2023-06-22T02:15:27;4.30;;;3.90;;
11453;SDS011;5783;55.174;61.310;2023-06-22T02:17:57;4.40;;;3.93;;
11453;SDS011;5783;55.174;61.310;2023-06-22T02:20:28;4.20;;;3.80;;
11453;SDS011;5783;55.174;61.310;2023-06-22T02:22:57;4.37;;;3.97;;
11453;SDS011;5783;55.174;61.310;2023-06-22T02:25:26;3.80;;;3.40;;
11453;SDS011;5783;55.174;61.310;2023-06-22T02:27:55;4.00;;;3.60;;
11453;SDS011;5783;55.174;61.310;2023-06-22T02:30:24;3.93;;;3.53;;
11453;SDS011;5783;55.174;61.310;2023-06-22T02:32:54;3.87;;;3.40;;
11453;SDS011;5783;55.174;61.310;2023-06-22T02:35:42;3.93;;;3.50;;
11453;SDS011;5783;55.174;61.310;2023-06-22T02:38:13;3.63;;;3.30;;
11453;SDS011;5783;55.174;61.310;2023-06-22T02:40:43;3.90;;;3.50;;
11453;SDS011;5783;55.174;61.310;2023-06-22T02:43:12;3.50;;;3.20;;
11453;SDS011;5783;55.174;61.310;2023-06-22T02:45:42;3.60;;;3.30;;
11453;SDS011;5783;55.174;61.310;2023-06-22T02:48:11;3.47;;;3.17;;
11453;SDS011;5783;55.174;61.310;2023-06-22T02:50:40;4.90;;;3.30;;
11453;SDS011;5783;55.174;61.310;2023-06-22T02:53:10;3.80;;;3.50;;
11453;SDS011;5783;55.174;61.310;2023-06-22T02:55:39;3.57;;;3.27;;
11453;SDS011;5783;55.174;61.310;2023-06-22T02:58:08;3.60;;;3.30;;
11453;SDS011;5783;55.174;61.310;2023-06-22T03:00:37;3.73;;;3.40;;
11453;SDS011;5783;55.174;61.310;2023-06-22T03:03:06;3.87;;;3.30;;
11453;SDS011;5783;55.174;61.310;2023-06-22T03:05:35;3.60;;;3.30;;
11453;SDS011;5783;55.174;61.310;2023-06-22T03:08:06;3.60;;;3.30;;
11453;SDS011;5783;55.174;61.310;2023-06-22T03:10:35;3.33;;;3.03;;
11453;SDS011;5783;55.174;61.310;2023-06-22T03:13:04;3.70;;;3.40;;
11453;SDS011;5783;55.174;61.310;2023-06-22T03:15:33;3.70;;;3.37;;
11453;SDS011;5783;55.174;61.310;2023-06-22T03:18:02;3.47;;;3.17;;
11453;SDS011;5783;55.174;61.310;2023-06-22T03:20:32;3.70;;;3.30;;
11453;SDS011;5783;55.174;61.310;2023-06-22T03:23:01;3.47;;;3.17;;
11453;SDS011;5783;55.174;61.310;2023-06-22T03:25:31;3.30;;;3.00;;
11453;SDS011;5783;55.174;61.310;2023-06-22T03:28:00;3.47;;;3.17;;
11453;SDS011;5783;55.174;61.310;2023-06-22T03:30:29;3.30;;;3.00;;
11453;SDS011;5783;55.174;61.310;2023-06-22T03:32:58;3.60;;;3.30;;
11453;SDS011;5783;55.174;61.310;2023-06-22T03:35:27;3.80;;;3.20;;
11453;SDS011;5783;55.174;61.310;2023-06-22T03:37:56;4.00;;;3.60;;
11453;SDS011;5783;55.174;61.310;2023-06-22T03:40:26;3.87;;;3.27;;
11453;SDS011;5783;55.174;61.310;2023-06-22T03:42:55;3.50;;;3.20;;
11453;SDS011;5783;55.174;61.310;2023-06-22T03:45:24;3.70;;;3.33;;
11453;SDS011;5783;55.174;61.310;2023-06-22T03:47:53;3.90;;;3.47;;
11453;SDS011;5783;55.174;61.310;2023-06-22T03:50:22;3.60;;;3.30;;
11453;SDS011;5783;55.174;61.310;2023-06-22T03:52:52;3.53;;;3.00;;
11453;SDS011;5783;55.174;61.310;2023-06-22T03:55:21;3.53;;;3.23;;
11453;SDS011;5783;55.174;61.310;2023-06-22T03:57:50;3.37;;;3.07;;
11453;SDS011;5783;55.174;61.310;2023-06-22T04:00:21;3.33;;;3.03;;
11453;SDS011;5783;55.174;61.310;2023-06-22T04:02:50;4.23;;;3.30;;
11453;SDS011;5783;55.174;61.310;2023-06-22T04:05:19;3.40;;;3.10;;
11453;SDS011;5783;55.174;61.310;2023-06-22T04:07:48;3.63;;;3.20;;
11453;SDS011;5783;55.174;61.310;2023-06-22T04:10:18;4.90;;;3.43;;
11453;SDS011;5783;55.174;61.310;2023-06-22T04:12:47;3.80;;;3.30;;
11453;SDS011;5783;55.174;61.310;2023-06-22T04:15:16;3.67;;;3.37;;
11453;SDS011;5783;55.174;61.310;2023-06-22T04:17:45;4.03;;;3.60;;
11453;SDS011;5783;55.174;61.310;2023-06-22T04:20:16;4.97;;;3.40;;
11453;SDS011;5783;55.174;61.310;2023-06-22T04:22:45;3.90;;;3.50;;
11453;SDS011;5783;55.174;61.310;2023-06-22T04:25:14;3.50;;;3.20;;
11453;SDS011;5783;55.174;61.310;2023-06-22T04:27:44;3.57;;;3.27;;
11453;SDS011;5783;55.174;61.310;2023-06-22T04:30:13;4.07;;;3.50;;
11453;SDS011;5783;55.174;61.310;2023-06-22T04:32:43;3.97;;;3.57;;
11453;SDS011;5783;55.174;61.310;2023-06-22T04:35:14;14.33;;;3.93;;
11453;SDS011;5783;55.174;61.310;2023-06-22T04:37:43;4.30;;;3.83;;
11453;SDS011;5783;55.174;61.310;2023-06-22T04:40:14;4.53;;;3.80;;
11453;SDS011;5783;55.174;61.310;2023-06-22T04:42:43;5.97;;;4.23;;
11453;SDS011;5783;55.174;61.310;2023-06-22T04:47:45;5.80;;;4.60;;
11453;SDS011;5783;55.174;61.310;2023-06-22T04:50:15;8.00;;;4.80;;
11453;SDS011;5783;55.174;61.310;2023-06-22T04:52:46;8.80;;;4.73;;
11453;SDS011;5783;55.174;61.310;2023-06-22T04:55:15;7.47;;;5.23;;
11453;SDS011;5783;55.174;61.310;2023-06-22T04:57:45;8.50;;;5.37;;
11453;SDS011;5783;55.174;61.310;2023-06-22T05:00:16;9.17;;;5.10;;
11453;SDS011;5783;55.174;61.310;2023-06-22T05:02:49;6.07;;;4.97;;
11453;SDS011;5783;55.174;61.310;2023-06-22T05:05:18;8.00;;;5.30;;
11453;SDS011;5783;55.174;61.310;2023-06-22T05:07:47;7.00;;;5.00;;
11453;SDS011;5783;55.174;61.310;2023-06-22T05:10:20;7.63;;;5.97;;
11453;SDS011;5783;55.174;61.310;2023-06-22T05:12:49;6.90;;;5.73;;
11453;SDS011;5783;55.174;61.310;2023-06-22T05:15:18;7.93;;;5.70;;
11453;SDS011;5783;55.174;61.310;2023-06-22T05:17:49;11.53;;;6.17;;
11453;SDS011;5783;55.174;61.310;2023-06-22T05:20:18;13.53;;;7.73;;
11453;SDS011;5783;55.174;61.310;2023-06-22T05:22:48;13.80;;;10.20;;
11453;SDS011;5783;55.174;61.310;2023-06-22T05:25:17;13.43;;;9.87;;
11453;SDS011;5783;55.174;61.310;2023-06-22T05:27:47;14.40;;;10.73;;
11453;SDS011;5783;55.174;61.310;2023-06-22T05:30:17;22.30;;;13.90;;
11453;SDS011;5783;55.174;61.310;2023-06-22T05:32:47;12.67;;;8.73;;
11453;SDS011;5783;55.174;61.310;2023-06-22T05:35:16;14.00;;;10.00;;
11453;SDS011;5783;55.174;61.310;2023-06-22T05:37:45;14.33;;;8.07;;
11453;SDS011;5783;55.174;61.310;2023-06-22T05:40:14;6.60;;;5.90;;
11453;SDS011;5783;55.174;61.310;2023-06-22T05:42:44;9.33;;;6.17;;
11453;SDS011;5783;55.174;61.310;2023-06-22T05:45:13;7.33;;;4.73;;
11453;SDS011;5783;55.174;61.310;2023-06-22T05:47:42;5.60;;;4.53;;
11453;SDS011;5783;55.174;61.310;2023-06-22T05:50:11;4.97;;;3.97;;
11453;SDS011;5783;55.174;61.310;2023-06-22T05:52:41;4.20;;;3.50;;
11453;SDS011;5783;55.174;61.310;2023-06-22T05:55:10;5.43;;;3.50;;
11453;SDS011;5783;55.174;61.310;2023-06-22T05:57:39;4.27;;;3.17;;
11453;SDS011;5783;55.174;61.310;2023-06-22T06:00:08;3.93;;;3.00;;
11453;SDS011;5783;55.174;61.310;2023-06-22T06:02:38;3.83;;;2.80;;
11453;SDS011;5783;55.174;61.310;2023-06-22T06:05:10;7.70;;;3.20;;
11453;SDS011;5783;55.174;61.310;2023-06-22T06:07:40;4.30;;;3.03;;
11453;SDS011;5783;55.174;61.310;2023-06-22T06:10:10;3.27;;;2.53;;
11453;SDS011;5783;55.174;61.310;2023-06-22T06:12:39;4.97;;;3.10;;
11453;SDS011;5783;55.174;61.310;2023-06-22T06:15:09;5.20;;;3.10;;
11453;SDS011;5783;55.174;61.310;2023-06-22T06:20:28;4.23;;;2.90;;
11453;SDS011;5783;55.174;61.310;2023-06-22T06:22:58;3.60;;;2.97;;
11453;SDS011;5783;55.174;61.310;2023-06-22T06:25:27;4.17;;;2.67;;
11453;SDS011;5783;55.174;61.310;2023-06-22T06:27:56;7.00;;;3.00;;
11453;SDS011;5783;55.174;61.310;2023-06-22T06:30:25;5.57;;;3.20;;
11453;SDS011;5783;55.174;61.310;2023-06-22T06:32:54;3.80;;;2.83;;
11453;SDS011;5783;55.174;61.310;2023-06-22T06:35:24;5.43;;;3.07;;
11453;SDS011;5783;55.174;61.310;2023-06-22T06:37:53;3.53;;;3.10;;
11453;SDS011;5783;55.174;61.310;2023-06-22T06:40:22;4.00;;;3.13;;
11453;SDS011;5783;55.174;61.310;2023-06-22T06:42:51;3.80;;;3.00;;
11453;SDS011;5783;55.174;61.310;2023-06-22T06:45:21;4.40;;;3.00;;
11453;SDS011;5783;55.174;61.310;2023-06-22T06:47:53;3.80;;;3.20;;
11453;SDS011;5783;55.174;61.310;2023-06-22T06:50:22;4.60;;;3.00;;
11453;SDS011;5783;55.174;61.310;2023-06-22T06:52:52;4.70;;;3.00;;
11453;SDS011;5783;55.174;61.310;2023-06-22T06:55:22;3.80;;;3.10;;
11453;SDS011;5783;55.174;61.310;2023-06-22T06:57:51;3.80;;;3.10;;
11453;SDS011;5783;55.174;61.310;2023-06-22T07:00:20;5.27;;;3.13;;
11453;SDS011;5783;55.174;61.310;2023-06-22T07:02:51;5.60;;;3.10;;
11453;SDS011;5783;55.174;61.310;2023-06-22T07:05:21;4.27;;;3.07;;
11453;SDS011;5783;55.174;61.310;2023-06-22T07:07:50;3.77;;;3.13;;
11453;SDS011;5783;55.174;61.310;2023-06-22T07:10:19;4.43;;;2.93;;
11453;SDS011;5783;55.174;61.310;2023-06-22T07:12:48;4.83;;;3.13;;
11453;SDS011;5783;55.174;61.310;2023-06-22T07:15:17;3.47;;;3.03;;
11453;SDS011;5783;55.174;61.310;2023-06-22T07:17:46;4.63;;;3.13;;
11453;SDS011;5783;55.174;61.310;2023-06-22T07:20:16;3.47;;;3.10;;
11453;SDS011;5783;55.174;61.310;2023-06-22T07:22:45;5.67;;;3.20;;
11453;SDS011;5783;55.174;61.310;2023-06-22T07:25:14;5.20;;;3.13;;
11453;SDS011;5783;55.174;61.310;2023-06-22T07:30:35;7.33;;;3.30;;
11453;SDS011;5783;55.174;61.310;2023-06-22T07:33:04;6.80;;;3.57;;
11453;SDS011;5783;55.174;61.310;2023-06-22T07:35:33;4.83;;;3.53;;
11453;SDS011;5783;55.174;61.310;2023-06-22T07:38:03;5.93;;;3.30;;
11453;SDS011;5783;55.174;61.310;2023-06-22T07:40:32;4.53;;;3.30;;
11453;SDS011;5783;55.174;61.310;2023-06-22T07:43:02;4.83;;;3.50;;
11453;SDS011;5783;55.174;61.310;2023-06-22T07:45:32;3.87;;;3.47;;
11453;SDS011;5783;55.174;61.310;2023-06-22T07:48:01;3.73;;;3.40;;
11453;SDS011;5783;55.174;61.310;2023-06-22T07:50:30;4.03;;;3.33;;
11453;SDS011;5783;55.174;61.310;2023-06-22T07:52:59;3.93;;;3.40;;
11453;SDS011;5783;55.174;61.310;2023-06-22T07:55:28;4.83;;;3.63;;
11453;SDS011;5783;55.174;61.310;2023-06-22T07:57:58;3.80;;;3.37;;
11453;SDS011;5783;55.174;61.310;2023-06-22T08:00:27;3.60;;;3.30;;
11453;SDS011;5783;55.174;61.310;2023-06-22T08:02:56;3.87;;;3.23;;
11453;SDS011;5783;55.174;61.310;2023-06-22T08:05:25;3.97;;;3.57;;
11453;SDS011;5783;55.174;61.310;2023-06-22T08:07:55;3.63;;;3.30;;
11453;SDS011;5783;55.174;61.310;2023-06-22T08:10:24;3.70;;;3.37;;
11453;SDS011;5783;55.174;61.310;2023-06-22T08:12:53;3.40;;;3.10;;
11453;SDS011;5783;55.174;61.310;2023-06-22T08:15:23;4.50;;;3.30;;
11453;SDS011;5783;55.174;61.310;2023-06-22T08:17:52;3.97;;;3.23;;
11453;SDS011;5783;55.174;61.310;2023-06-22T08:20:21;4.03;;;3.40;;
11453;SDS011;5783;55.174;61.310;2023-06-22T08:22:51;5.00;;;3.50;;
11453;SDS011;5783;55.174;61.310;2023-06-22T08:25:21;5.43;;;3.40;;
11453;SDS011;5783;55.174;61.310;2023-06-22T08:27:50;4.30;;;3.63;;
11453;SDS011;5783;55.174;61.310;2023-06-22T08:30:20;4.27;;;3.50;;
11453;SDS011;5783;55.174;61.310;2023-06-22T08:32:50;4.00;;;3.60;;
11453;SDS011;5783;55.174;61.310;2023-06-22T08:35:21;4.80;;;3.60;;
11453;SDS011;5783;55.174;61.310;2023-06-22T08:37:51;4.23;;;3.60;;
11453;SDS011;5783;55.174;61.310;2023-06-22T08:40:22;5.27;;;3.60;;
11453;SDS011;5783;55.174;61.310;2023-06-22T08:42:51;5.90;;;3.70;;
11453;SDS011;5783;55.174;61.310;2023-06-22T08:45:20;3.87;;;3.50;;
11453;SDS011;5783;55.174;61.310;2023-06-22T08:47:50;5.87;;;3.60;;
11453;SDS011;5783;55.174;61.310;2023-06-22T08:50:19;3.67;;;3.37;;
11453;SDS011;5783;55.174;61.310;2023-06-22T08:52:48;3.87;;;3.30;;
11453;SDS011;5783;55.174;61.310;2023-06-22T08:55:17;4.00;;;3.50;;
11453;SDS011;5783;55.174;61.310;2023-06-22T08:57:46;5.93;;;3.43;;
11453;SDS011;5783;55.174;61.310;2023-06-22T09:00:17;4.00;;;3.60;;
11453;SDS011;5783;55.174;61.310;2023-06-22T09:02:47;5.43;;;3.80;;
11453;SDS011;5783;55.174;61.310;2023-06-22T09:05:16;4.93;;;3.40;;
11453;SDS011;5783;55.174;61.310;2023-06-22T09:07:47;4.30;;;3.53;;
11453;SDS011;5783;55.174;61.310;2023-06-22T09:10:16;3.97;;;3.50;;
11453;SDS011;5783;55.174;61.310;2023-06-22T09:12:46;5.10;;;3.23;;
11453;SDS011;5783;55.174;61.310;2023-06-22T09:15:15;4.53;;;3.53;;
11453;SDS011;5783;55.174;61.310;2023-06-22T09:17:44;4.60;;;3.73;;
11453;SDS011;5783;55.174;61.310;2023-06-22T09:20:13;5.33;;;3.80;;
11453;SDS011;5783;55.174;61.310;2023-06-22T09:22:43;4.47;;;3.73;;
11453;SDS011;5783;55.174;61.310;2023-06-22T09:25:12;4.30;;;3.90;;
11453;SDS011;5783;55.174;61.310;2023-06-22T09:27:41;4.37;;;3.63;;
11453;SDS011;5783;55.174;61.310;2023-06-22T09:30:10;4.43;;;3.93;;
11453;SDS011;5783;55.174;61.310;2023-06-22T09:32:40;5.40;;;3.70;;
11453;SDS011;5783;55.174;61.310;2023-06-22T09:35:09;6.43;;;3.80;;
11453;SDS011;5783;55.174;61.310;2023-06-22T09:37:40;10.40;;;3.90;;
11453;SDS011;5783;55.174;61.310;2023-06-22T09:40:11;5.53;;;3.73;;
11453;SDS011;5783;55.174;61.310;2023-06-22T09:42:42;4.80;;;3.80;;
11453;SDS011;5783;55.174;61.310;2023-06-22T09:45:11;6.67;;;4.00;;
11453;SDS011;5783;55.174;61.310;2023-06-22T09:47:40;4.97;;;3.60;;
11453;SDS011;5783;55.174;61.310;2023-06-22T09:50:09;4.13;;;3.57;;
11453;SDS011;5783;55.174;61.310;2023-06-22T09:52:38;4.47;;;3.60;;
11453;SDS011;5783;55.174;61.310;2023-06-22T09:55:09;3.30;;;3.00;;
11453;SDS011;5783;55.174;61.310;2023-06-22T09:57:38;6.37;;;3.90;;
11453;SDS011;5783;55.174;61.310;2023-06-22T10:00:08;6.27;;;3.60;;
11453;SDS011;5783;55.174;61.310;2023-06-22T10:02:57;4.10;;;3.70;;
11453;SDS011;5783;55.174;61.310;2023-06-22T10:05:26;5.17;;;3.50;;
11453;SDS011;5783;55.174;61.310;2023-06-22T10:07:55;7.17;;;3.50;;
11453;SDS011;5783;55.174;61.310;2023-06-22T10:10:24;5.23;;;3.53;;
11453;SDS011;5783;55.174;61.310;2023-06-22T10:15:42;3.53;;;3.10;;
11453;SDS011;5783;55.174;61.310;2023-06-22T10:18:13;4.07;;;3.00;;
11453;SDS011;5783;55.174;61.310;2023-06-22T10:20:42;4.67;;;3.33;;
11453;SDS011;5783;55.174;61.310;2023-06-22T10:23:12;3.37;;;3.07;;
11453;SDS011;5783;55.174;61.310;2023-06-22T10:25:41;5.27;;;3.17;;
11453;SDS011;5783;55.174;61.310;2023-06-22T10:28:10;3.30;;;2.80;;
11453;SDS011;5783;55.174;61.310;2023-06-22T10:30:41;4.93;;;2.90;;
11453;SDS011;5783;55.174;61.310;2023-06-22T10:33:11;3.30;;;3.00;;
11453;SDS011;5783;55.174;61.310;2023-06-22T10:35:40;3.40;;;3.10;;
11453;SDS011;5783;55.174;61.310;2023-06-22T10:38:09;3.93;;;2.90;;
11453;SDS011;5783;55.174;61.310;2023-06-22T10:40:38;3.30;;;3.00;;
11453;SDS011;5783;55.174;61.310;2023-06-22T10:43:07;2.83;;;2.63;;
11453;SDS011;5783;55.174;61.310;2023-06-22T10:45:37;3.30;;;2.93;;
11453;SDS011;5783;55.174;61.310;2023-06-22T10:48:06;3.20;;;2.90;;
11453;SDS011;5783;55.174;61.310;2023-06-22T10:50:35;3.67;;;3.23;;
11453;SDS011;5783;55.174;61.310;2023-06-22T10:53:04;3.77;;;3.00;;
11453;SDS011;5783;55.174;61.310;2023-06-22T10:55:33;4.00;;;3.13;;
11453;SDS011;5783;55.174;61.310;2023-06-22T10:58:02;4.33;;;3.57;;
11453;SDS011;5783;55.174;61.310;2023-06-22T11:00:32;3.73;;;3.27;;
11453;SDS011;5783;55.174;61.310;2023-06-22T11:03:01;3.50;;;3.20;;
11453;SDS011;5783;55.174;61.310;2023-06-22T11:05:31;3.67;;;3.20;;
11453;SDS011;5783;55.174;61.310;2023-06-22T11:08:00;3.50;;;3.20;;
11453;SDS011;5783;55.174;61.310;2023-06-22T11:10:29;3.30;;;3.00;;
11453;SDS011;5783;55.174;61.310;2023-06-22T11:12:59;3.60;;;2.93;;
11453;SDS011;5783;55.174;61.310;2023-06-22T11:15:29;4.17;;;3.20;;
11453;SDS011;5783;55.174;61.310;2023-06-22T11:17:59;3.30;;;3.00;;
11453;SDS011;5783;55.174;61.310;2023-06-22T11:20:28;3.30;;;3.00;;
11453;SDS011;5783;55.174;61.310;2023-06-22T11:22:59;3.17;;;2.87;;
11453;SDS011;5783;55.174;61.310;2023-06-22T11:25:28;3.77;;;3.30;;
11453;SDS011;5783;55.174;61.310;2023-06-22T11:27:57;3.20;;;2.90;;
11453;SDS011;5783;55.174;61.310;2023-06-22T11:30:26;3.70;;;3.20;;
11453;SDS011;5783;55.174;61.310;2023-06-22T11:35:44;3.30;;;2.90;;
11453;SDS011;5783;55.174;61.310;2023-06-22T11:38:13;3.00;;;2.70;;
11453;SDS011;5783;55.174;61.310;2023-06-22T11:40:43;3.10;;;2.80;;
11453;SDS011;5783;55.174;61.310;2023-06-22T11:43:12;3.20;;;2.90;;
11453;SDS011;5783;55.174;61.310;2023-06-22T11:45:41;4.30;;;2.87;;
11453;SDS011;5783;55.174;61.310;2023-06-22T11:48:10;3.40;;;3.10;;
11453;SDS011;5783;55.174;61.310;2023-06-22T11:50:39;4.13;;;3.20;;
11453;SDS011;5783;55.174;61.310;2023-06-22T11:53:08;3.60;;;3.07;;
11453;SDS011;5783;55.174;61.310;2023-06-22T11:55:38;3.27;;;2.97;;
11453;SDS011;5783;55.174;61.310;2023-06-22T11:58:07;3.57;;;3.23;;
11453;SDS011;5783;55.174;61.310;2023-06-22T12:00:37;4.93;;;3.20;;
11453;SDS011;5783;55.174;61.310;2023-06-22T12:03:07;3.80;;;3.47;;
11453;SDS011;5783;55.174;61.310;2023-06-22T12:05:38;3.90;;;3.50;;
11453;SDS011;5783;55.174;61.310;2023-06-22T12:08:07;3.70;;;3.30;;
11453;SDS011;5783;55.174;61.310;2023-06-22T12:10:37;4.03;;;3.37;;
11453;SDS011;5783;55.174;61.310;2023-06-22T12:13:06;4.80;;;3.50;;
11453;SDS011;5783;55.174;61.310;2023-06-22T12:15:36;5.20;;;3.20;;
11453;SDS011;5783;55.174;61.310;2023-06-22T12:18:05;3.50;;;3.20;;
11453;SDS011;5783;55.174;61.310;2023-06-22T12:20:35;3.53;;;3.23;;
11453;SDS011;5783;55.174;61.310;2023-06-22T12:23:04;5.63;;;3.60;;
11453;SDS011;5783;55.174;61.310;2023-06-22T12:25:33;5.73;;;3.70;;
11453;SDS011;5783;55.174;61.310;2023-06-22T12:28:02;5.10;;;3.80;;
11453;SDS011;5783;55.174;61.310;2023-06-22T12:33:21;6.93;;;3.30;;
11453;SDS011;5783;55.174;61.310;2023-06-22T12:35:50;5.53;;;3.53;;
11453;SDS011;5783;55.174;61.310;2023-06-22T12:38:19;4.87;;;3.47;;
11453;SDS011;5783;55.174;61.310;2023-06-22T12:40:50;3.93;;;3.30;;
11453;SDS011;5783;55.174;61.310;2023-06-22T12:43:19;5.00;;;3.43;;
11453;SDS011;5783;55.174;61.310;2023-06-22T12:45:48;4.83;;;3.57;;
11453;SDS011;5783;55.174;61.310;2023-06-22T12:48:19;5.87;;;3.67;;
11453;SDS011;5783;55.174;61.310;2023-06-22T12:50:48;3.67;;;3.37;;
11453;SDS011;5783;55.174;61.310;2023-06-22T12:53:17;4.83;;;3.57;;
11453;SDS011;5783;55.174;61.310;2023-06-22T12:55:48;6.70;;;3.70;;
11453;SDS011;5783;55.174;61.310;2023-06-22T12:58:17;8.50;;;3.53;;
11453;SDS011;5783;55.174;61.310;2023-06-22T13:00:47;4.63;;;3.53;;
11453;SDS011;5783;55.174;61.310;2023-06-22T13:03:16;6.00;;;3.30;;
11453;SDS011;5783;55.174;61.310;2023-06-22T13:05:46;4.67;;;3.70;;
11453;SDS011;5783;55.174;61.310;2023-06-22T13:08:15;4.70;;;3.23;;
11453;SDS011;5783;55.174;61.310;2023-06-22T13:10:44;4.73;;;3.20;;
11453;SDS011;5783;55.174;61.310;2023-06-22T13:13:13;5.03;;;3.70;;
11453;SDS011;5783;55.174;61.310;2023-06-22T13:15:43;4.43;;;3.50;;
11453;SDS011;5783;55.174;61.310;2023-06-22T13:18:12;4.07;;;3.67;;
11453;SDS011;5783;55.174;61.310;2023-06-22T13:20:41;4.27;;;3.53;;
11453;SDS011;5783;55.174;61.310;2023-06-22T13:23:11;4.30;;;3.63;;
11453;SDS011;5783;55.174;61.310;2023-06-22T13:25:40;3.70;;;3.40;;
11453;SDS011;5783;55.174;61.310;2023-06-22T13:28:09;4.67;;;3.90;;
11453;SDS011;5783;55.174;61.310;2023-06-22T13:30:40;4.70;;;3.63;;
11453;SDS011;5783;55.174;61.310;2023-06-22T13:33:11;4.90;;;3.60;;
11453;SDS011;5783;55.174;61.310;2023-06-22T13:35:40;4.83;;;4.07;;
11453;SDS011;5783;55.174;61.310;2023-06-22T13:38:09;5.37;;;3.77;;
11453;SDS011;5783;55.174;61.310;2023-06-22T13:40:39;5.50;;;4.00;;
11453;SDS011;5783;55.174;61.310;2023-06-22T13:43:08;8.60;;;4.37;;
11453;SDS011;5783;55.174;61.310;2023-06-22T13:45:37;6.80;;;4.40;;
11453;SDS011;5783;55.174;61.310;2023-06-22T13:48:06;5.03;;;4.53;;
11453;SDS011;5783;55.174;61.310;2023-06-22T13:50:36;5.17;;;3.80;;
11453;SDS011;5783;55.174;61.310;2023-06-22T13:53:05;4.90;;;4.30;;
11453;SDS011;5783;55.174;61.310;2023-06-22T13:55:34;6.07;;;4.53;;
11453;SDS011;5783;55.174;61.310;2023-06-22T13:58:03;5.57;;;4.53;;
11453;SDS011;5783;55.174;61.310;2023-06-22T14:00:32;7.73;;;4.80;;
11453;SDS011;5783;55.174;61.310;2023-06-22T14:03:02;4.80;;;4.30;;
11453;SDS011;5783;55.174;61.310;2023-06-22T14:08:22;5.50;;;4.23;;
11453;SDS011;5783;55.174;61.310;2023-06-22T14:10:51;6.33;;;4.20;;
11453;SDS011;5783;55.174;61.310;2023-06-22T14:13:20;6.27;;;4.53;;
11453;SDS011;5783;55.174;61.310;2023-06-22T14:15:49;5.97;;;4.40;;
11453;SDS011;5783;55.174;61.310;2023-06-22T14:18:19;4.77;;;4.20;;
11453;SDS011;5783;55.174;61.310;2023-06-22T14:20:49;4.50;;;4.10;;
11453;SDS011;5783;55.174;61.310;2023-06-22T14:23:18;4.87;;;4.13;;
11453;SDS011;5783;55.174;61.310;2023-06-22T14:25:47;4.80;;;4.30;;
11453;SDS011;5783;55.174;61.310;2023-06-22T14:28:16;5.57;;;4.40;;
11453;SDS011;5783;55.174;61.310;2023-06-22T14:30:45;5.00;;;4.50;;
11453;SDS011;5783;55.174;61.310;2023-06-22T14:33:16;4.80;;;4.30;;
11453;SDS011;5783;55.174;61.310;2023-06-22T14:35:45;4.80;;;4.30;;
11453;SDS011;5783;55.174;61.310;2023-06-22T14:38:15;4.63;;;4.07;;
11453;SDS011;5783;55.174;61.310;2023-06-22T14:40:44;6.23;;;4.20;;
11453;SDS011;5783;55.174;61.310;2023-06-22T14:43:14;5.10;;;4.03;;
11453;SDS011;5783;55.174;61.310;2023-06-22T14:45:43;4.40;;;3.90;;
11453;SDS011;5783;55.174;61.310;2023-06-22T14:48:12;4.70;;;4.10;;
11453;SDS011;5783;55.174;61.310;2023-06-22T14:50:41;7.97;;;4.60;;
11453;SDS011;5783;55.174;61.310;2023-06-22T14:53:10;7.00;;;4.50;;
11453;SDS011;5783;55.174;61.310;2023-06-22T14:55:40;6.43;;;4.37;;
11453;SDS011;5783;55.174;61.310;2023-06-22T14:58:09;5.80;;;4.53;;
11453;SDS011;5783;55.174;61.310;2023-06-22T15:00:38;6.53;;;4.07;;
11453;SDS011;5783;55.174;61.310;2023-06-22T15:03:08;4.33;;;3.93;;
11453;SDS011;5783;55.174;61.310;2023-06-22T15:05:38;4.03;;;3.57;;
11453;SDS011;5783;55.174;61.310;2023-06-22T15:08:08;3.97;;;3.57;;
11453;SDS011;5783;55.174;61.310;2023-06-22T15:10:37;4.87;;;3.57;;
11453;SDS011;5783;55.174;61.310;2023-06-22T15:13:06;4.23;;;3.70;;
11453;SDS011;5783;55.174;61.310;2023-06-22T15:15:35;4.10;;;3.70;;
11453;SDS011;5783;55.174;61.310;2023-06-22T15:18:05;3.70;;;3.37;;
11453;SDS011;5783;55.174;61.310;2023-06-22T15:20:34;3.33;;;3.03;;
11453;SDS011;5783;55.174;61.310;2023-06-22T15:23:03;3.70;;;3.30;;
11453;SDS011;5783;55.174;61.310;2023-06-22T15:25:35;3.33;;;3.03;;
11453;SDS011;5783;55.174;61.310;2023-06-22T15:28:04;3.27;;;2.97;;
11453;SDS011;5783;55.174;61.310;2023-06-22T15:30:33;3.60;;;3.30;;
11453;SDS011;5783;55.174;61.310;2023-06-22T15:33:02;3.57;;;3.27;;
11453;SDS011;5783;55.174;61.310;2023-06-22T15:35:32;3.63;;;3.33;;
11453;SDS011;5783;55.174;61.310;2023-06-22T15:38:01;3.83;;;3.50;;
11453;SDS011;5783;55.174;61.310;2023-06-22T15:40:30;3.67;;;3.37;;
11453;SDS011;5783;55.174;61.310;2023-06-22T15:42:59;4.40;;;3.50;;
11453;SDS011;5783;55.174;61.310;2023-06-22T15:45:28;3.60;;;3.30;;